Mobile — WDD9649 — position and weather

sailwx.info

Track history (hours):
 
Tides and Currents Weather Stations Pressure Air Temp Water Temp Dewpoint Dewpoint Depression Visibility Wind Speed Wind Dir Waves Ship Positions

Mobile

Owner: Kirby Inland Marine, LP, Houston, TX. More information available from US FCC via Universal Licensing System and Coast Guard Vessel Documentation Center.

Last reported at 2017-Sep-18 10:46 UTC. Time now 2017-Sep-20 23:48 UTC.
Position N 30°26' W 086°17'.

Length 114 m; draft 2.7 m.

Type: . MMSI: 367314430.

Date/timePositionNaut miles runAvg speedWind from/ knotsBaromVisibWave heightAir tempDewpointWater temp
2017-Sep-18 10:46N 30°26' W 086°17'2 6.0
2017-Sep-18 10:30N 30°26' W 086°19'3 6.1
2017-Sep-18 09:57N 30°26' W 086°23'3 6.1
2017-Sep-18 09:30N 30°26' W 086°26'4 6.1
2017-Sep-18 08:52N 30°26' W 086°30'12 5.3
2017-Sep-18 06:31N 30°24' W 086°45'0 5.7
2017-Sep-18 06:30N 30°24' W 086°45'3 5.5
2017-Sep-18 06:00N 30°24' W 086°48'3 5.4
2017-Sep-18 05:30N 30°24' W 086°51'3 5.4
2017-Sep-18 05:00N 30°24' W 086°54'  
2017-Sep-13 14:11N 29°57' W 090°24'  
Track history (hours):
 
Tides and Currents Weather Stations Pressure Air Temp Water Temp Dewpoint Dewpoint Depression Visibility Wind Speed Wind Dir Waves Ship Positions

Mobile

Owner: Kirby Inland Marine, LP, Houston, TX. More information available from US FCC via Universal Licensing System and Coast Guard Vessel Documentation Center.

Last reported at 2017-Sep-18 10:46 UTC. Time now 2017-Sep-20 23:48 UTC.
Position N 30°26' W 086°17'.

Length 114 m; draft 2.7 m.

Type: . MMSI: 367314430.

Date/timePositionNaut miles runAvg speedWind from/ knotsBaromVisibWave heightAir tempDewpointWater temp
2017-Sep-18 10:46N 30°26' W 086°17'2 6.0
2017-Sep-18 10:30N 30°26' W 086°19'3 6.1
2017-Sep-18 09:57N 30°26' W 086°23'3 6.1
2017-Sep-18 09:30N 30°26' W 086°26'4 6.1
2017-Sep-18 08:52N 30°26' W 086°30'12 5.3
2017-Sep-18 06:31N 30°24' W 086°45'0 5.7
2017-Sep-18 06:30N 30°24' W 086°45'3 5.5
2017-Sep-18 06:00N 30°24' W 086°48'3 5.4
2017-Sep-18 05:30N 30°24' W 086°51'3 5.4
2017-Sep-18 05:00N 30°24' W 086°54'  
2017-Sep-13 14:11N 29°57' W 090°24'  

Dump ship's entire track history